createdAt,value
2019-04-01T00:01:25.208Z,52.67
2019-04-01T00:03:53.732Z,45.13
2019-04-01T00:06:22.553Z,47.27
2019-04-01T00:08:51.002Z,47.17
2019-04-01T00:11:19.521Z,44.87
2019-04-01T00:13:48.234Z,43.73
2019-04-01T00:16:16.688Z,45.97
2019-04-01T00:18:45.129Z,49.87
2019-04-01T00:21:13.719Z,49.67
2019-04-01T00:23:42.238Z,48.63
2019-04-01T00:26:10.681Z,49.30
2019-04-01T00:28:39.243Z,48.73
2019-04-01T00:31:07.699Z,46.80
2019-04-01T00:33:36.199Z,50.83
2019-04-01T00:36:05.094Z,44.40
2019-04-01T00:38:33.551Z,53.17
2019-04-01T00:41:01.982Z,48.17
2019-04-01T00:43:32.526Z,52.57
2019-04-01T00:46:01.041Z,47.53
2019-04-01T00:48:29.487Z,49.53
2019-04-01T00:50:58.109Z,50.33
2019-04-01T00:53:26.555Z,47.93
2019-04-01T00:55:55.026Z,48.87
2019-04-01T00:58:23.589Z,43.37
2019-04-01T01:00:52.034Z,48.33
2019-04-01T01:03:20.477Z,47.10
2019-04-01T01:05:48.953Z,43.80
2019-04-01T01:08:17.465Z,46.77
2019-04-01T01:10:45.910Z,43.73
2019-04-01T01:13:14.398Z,49.63
2019-04-01T01:15:42.846Z,44.67
2019-04-01T01:18:11.297Z,49.57
2019-04-01T01:20:40.333Z,47.20
2019-04-01T01:23:08.782Z,47.73
2019-04-01T01:25:37.225Z,46.07
2019-04-01T01:28:06.038Z,43.93
2019-04-01T01:30:34.494Z,44.13
2019-04-01T01:33:02.938Z,48.63
2019-04-01T01:35:32.378Z,48.33
2019-04-01T01:38:01.819Z,48.00
2019-04-01T01:40:30.266Z,52.30
2019-04-01T01:42:58.741Z,48.07
2019-04-01T01:45:27.186Z,46.83
2019-04-01T01:47:55.832Z,45.53
2019-04-01T01:50:24.277Z,42.87
2019-04-01T01:52:52.468Z,45.33
2019-04-01T01:55:20.940Z,45.10
2019-04-01T01:57:49.383Z,46.33
2019-04-01T02:00:18.737Z,45.97
2019-04-01T02:02:47.223Z,44.87
2019-04-01T02:05:15.665Z,50.23
2019-04-01T02:07:44.109Z,42.17
2019-04-01T02:10:12.706Z,41.03
2019-04-01T02:12:41.158Z,42.00
2019-04-01T02:15:09.846Z,39.47
2019-04-01T02:17:38.313Z,44.00
2019-04-01T02:20:06.821Z,42.30
2019-04-01T02:22:35.269Z,44.80
2019-04-01T02:25:04.115Z,41.03
2019-04-01T02:27:32.557Z,40.97
2019-04-01T02:30:01.008Z,43.03
2019-04-01T02:32:29.662Z,48.47
2019-04-01T02:34:58.104Z,37.33
2019-04-01T02:37:26.541Z,41.23
2019-04-01T02:39:55.141Z,40.40
2019-04-01T02:42:23.662Z,43.43
2019-04-01T02:44:52.107Z,38.13
2019-04-01T02:47:20.591Z,36.17
2019-04-01T02:49:49.035Z,33.53
2019-04-01T02:52:17.478Z,37.30
2019-04-01T02:54:46.327Z,42.13
2019-04-01T02:57:14.778Z,43.20
2019-04-01T02:59:43.224Z,39.47
2019-04-01T03:02:11.694Z,37.43
2019-04-01T03:04:40.133Z,40.27
2019-04-01T03:07:08.576Z,33.77
2019-04-01T03:09:37.126Z,35.37
2019-04-01T03:12:05.561Z,37.73
2019-04-01T03:14:34.006Z,42.10
2019-04-01T03:17:02.497Z,41.13
2019-04-01T03:19:31.462Z,34.57
2019-04-01T03:21:59.989Z,37.77
2019-04-01T03:24:28.542Z,35.57
2019-04-01T03:26:56.987Z,36.13
2019-04-01T03:29:25.441Z,39.60
2019-04-01T03:31:54.293Z,36.83
2019-04-01T03:34:22.906Z,38.97
2019-04-01T03:36:51.432Z,38.67
2019-04-01T03:39:20.352Z,36.60
2019-04-01T03:41:48.871Z,39.47
2019-04-01T03:44:17.384Z,33.87
2019-04-01T03:46:45.871Z,38.03
2019-04-01T03:49:14.313Z,38.67
2019-04-01T03:51:42.769Z,39.03
2019-04-01T03:54:11.314Z,36.07
2019-04-01T03:56:39.761Z,37.53
2019-04-01T03:59:08.208Z,37.50
2019-04-01T04:01:36.684Z,36.30
2019-04-01T04:04:05.191Z,34.20
2019-04-01T04:06:33.635Z,37.50
2019-04-01T04:09:02.579Z,36.93
2019-04-01T04:11:31.137Z,35.30
2019-04-01T04:13:59.651Z,35.23
2019-04-01T04:16:28.271Z,39.37
2019-04-01T04:18:56.721Z,39.93
2019-04-01T04:21:25.164Z,41.23
2019-04-01T04:23:53.766Z,39.80
2019-04-01T04:26:22.293Z,39.17
2019-04-01T04:28:50.802Z,36.30
2019-04-01T04:31:19.267Z,40.27
2019-04-01T04:33:47.705Z,38.97
2019-04-01T04:36:16.147Z,36.67
2019-04-01T04:38:44.727Z,36.37
2019-04-01T04:41:13.242Z,36.57
2019-04-01T04:43:41.689Z,38.70
2019-04-01T04:46:10.173Z,34.70
2019-04-01T04:48:38.625Z,37.27
2019-04-01T04:51:07.071Z,36.97
2019-04-01T04:53:35.551Z,36.37
2019-04-01T04:56:04.067Z,35.63
2019-04-01T04:58:32.515Z,37.67
2019-04-01T05:01:01.246Z,35.67
2019-04-01T05:03:29.757Z,37.47
2019-04-01T05:05:58.270Z,35.37
2019-04-01T05:08:27.269Z,36.97
2019-04-01T05:10:55.783Z,34.17
2019-04-01T05:13:24.221Z,33.80
2019-04-01T05:15:52.781Z,39.97
2019-04-01T05:18:21.333Z,33.77
2019-04-01T05:20:50.309Z,33.17
2019-04-01T05:23:18.919Z,51.37
2019-04-01T05:25:48.352Z,33.27
2019-04-01T05:28:17.957Z,30.83
2019-04-01T05:30:48.674Z,33.90
2019-04-01T05:33:20.193Z,31.03
2019-04-01T05:35:48.639Z,33.20
2019-04-01T05:38:17.425Z,36.50
2019-04-01T05:40:45.947Z,31.63
2019-04-01T05:43:14.387Z,33.70
2019-04-01T05:45:42.926Z,31.63
2019-04-01T05:48:12.213Z,30.20
2019-04-01T05:50:40.726Z,31.07
2019-04-01T05:53:09.193Z,34.60
2019-04-01T05:55:37.714Z,33.80
2019-04-01T05:58:06.154Z,32.57
2019-04-01T06:00:36.504Z,36.10
2019-04-01T06:03:05.356Z,30.80
2019-04-01T06:05:33.878Z,28.80
2019-04-01T06:08:03.496Z,27.83
2019-04-01T06:10:32.081Z,36.07
2019-04-01T06:13:00.678Z,25.83
2019-04-01T06:15:29.354Z,30.67
2019-04-01T06:17:57.798Z,29.63
2019-04-01T06:20:26.309Z,30.30
2019-04-01T06:22:55.011Z,30.33
2019-04-01T06:25:23.453Z,28.47
2019-04-01T06:27:52.134Z,27.77
2019-04-01T06:30:20.673Z,25.67
2019-04-01T06:32:49.125Z,29.13
2019-04-01T06:35:17.643Z,25.53
2019-04-01T06:37:46.119Z,25.40
2019-04-01T06:40:14.878Z,21.17
2019-04-01T06:42:43.390Z,28.70
2019-04-01T06:45:12.002Z,26.77
2019-04-01T06:47:40.450Z,25.13
2019-04-01T06:50:09.533Z,25.97
2019-04-01T06:52:38.175Z,24.37
2019-04-01T06:55:07.171Z,28.02
2019-04-01T06:57:35.930Z,23.27
2019-04-01T07:00:05.357Z,24.40
2019-04-01T07:02:33.960Z,23.53
2019-04-01T07:05:02.408Z,25.67
2019-04-01T07:07:31.031Z,24.50
2019-04-01T07:09:59.484Z,24.47
2019-04-01T07:12:28.010Z,23.43
2019-04-01T07:14:56.496Z,26.50
2019-04-01T07:17:25.078Z,21.93
2019-04-01T07:19:53.791Z,23.37
2019-04-01T07:22:22.330Z,20.60
2019-04-01T07:24:50.842Z,22.80
2019-04-01T07:27:19.286Z,23.97
2019-04-01T07:29:48.162Z,21.60
2019-04-01T07:32:16.752Z,25.57
2019-04-01T07:34:45.337Z,24.80
2019-04-01T07:37:14.045Z,25.60
2019-04-01T07:39:42.764Z,23.43
2019-04-01T07:42:11.286Z,20.80
2019-04-01T07:44:40.139Z,24.70
2019-04-01T07:47:08.657Z,26.47
2019-04-01T07:49:37.447Z,25.23
2019-04-01T07:52:05.994Z,21.33
2019-04-01T07:54:34.701Z,24.13
2019-04-01T07:57:03.291Z,27.77
2019-04-01T07:59:31.905Z,23.03
2019-04-01T08:02:00.795Z,22.47
2019-04-01T08:04:29.240Z,21.20
2019-04-01T08:06:57.783Z,27.57
2019-04-01T08:09:26.231Z,23.30
2019-04-01T08:11:54.994Z,22.87
2019-04-01T08:14:23.554Z,20.53
2019-04-01T08:16:52.009Z,20.27
2019-04-01T08:19:20.625Z,22.63
2019-04-01T08:21:52.206Z,21.30
2019-04-01T08:24:19.482Z,20.83
2019-04-01T08:26:47.926Z,23.27
2019-04-01T08:29:29.508Z,23.70
2019-04-01T08:31:47.281Z,23.80
2019-04-01T08:34:15.866Z,22.43
2019-04-01T08:36:44.874Z,21.43
2019-04-01T08:39:14.675Z,19.93
2019-04-01T08:41:43.658Z,20.87
2019-04-01T08:44:12.423Z,20.30
2019-04-01T08:46:41.200Z,23.10
2019-04-01T08:49:09.717Z,24.13
2019-04-01T08:51:38.266Z,22.63
2019-04-01T08:54:06.949Z,20.93
2019-04-01T08:56:38.127Z,21.87
2019-04-01T08:59:05.738Z,18.47
2019-04-01T09:01:35.606Z,22.93
2019-04-01T09:04:04.426Z,20.23
2019-04-01T09:06:33.570Z,22.20
2019-04-01T09:09:04.642Z,20.63
2019-04-01T09:11:33.562Z,22.93
2019-04-01T09:14:02.678Z,21.00
2019-04-01T09:16:31.666Z,21.63
2019-04-01T09:19:00.189Z,19.00
2019-04-01T09:21:29.243Z,19.97
2019-04-01T09:23:57.699Z,20.93
2019-04-01T09:26:26.221Z,19.23
2019-04-01T09:28:54.837Z,19.63
2019-04-01T09:31:23.295Z,22.03
2019-04-01T09:33:51.805Z,20.20
2019-04-01T09:36:20.525Z,24.13
2019-04-01T09:38:48.969Z,20.67
2019-04-01T09:41:17.418Z,20.70
2019-04-01T09:43:45.905Z,21.83
2019-04-01T09:46:14.494Z,20.17
2019-04-01T09:48:43.113Z,20.27
2019-04-01T09:51:11.658Z,21.87
2019-04-01T09:53:40.106Z,19.73
2019-04-01T09:56:08.553Z,19.17
2019-04-01T09:58:37.051Z,22.73
2019-04-01T10:01:05.577Z,22.47
2019-04-01T10:03:34.058Z,21.97
2019-04-01T10:06:02.600Z,22.27
2019-04-01T10:08:42.166Z,23.10
2019-04-01T10:11:01.289Z,20.93
2019-04-01T10:13:30.010Z,21.43
2019-04-01T10:15:58.463Z,23.33
2019-04-01T10:18:26.977Z,22.40
2019-04-01T10:20:55.517Z,23.30
2019-04-01T10:23:23.965Z,24.00
2019-04-01T10:25:52.414Z,24.30
2019-04-01T10:28:20.908Z,22.37
2019-04-01T10:30:49.422Z,23.47
2019-04-01T10:33:17.943Z,24.83
2019-04-01T10:35:46.471Z,24.03
2019-04-01T10:38:14.981Z,24.13
2019-04-01T10:40:43.538Z,20.97
2019-04-01T10:43:12.212Z,21.10
2019-04-01T10:45:40.660Z,20.50
2019-04-01T10:48:09.180Z,26.17
2019-04-01T10:50:37.928Z,25.68
2019-04-01T10:53:06.500Z,19.90
2019-04-01T10:55:35.123Z,22.47
2019-04-01T10:58:03.975Z,21.35
2019-04-01T11:00:32.527Z,21.35
2019-04-01T11:03:01.068Z,23.52
2019-04-01T11:05:29.612Z,22.95
2019-04-01T11:07:58.223Z,21.65
2019-04-01T11:10:26.765Z,21.55
2019-04-01T11:12:55.687Z,22.05
2019-04-01T11:15:24.274Z,20.20
2019-04-01T11:17:52.912Z,21.07
2019-04-01T11:20:21.559Z,21.48
2019-04-01T11:22:50.156Z,19.60
2019-04-01T11:25:18.810Z,21.60
2019-04-01T11:27:47.807Z,21.33
2019-04-01T11:30:17.765Z,21.70
2019-04-01T11:32:46.300Z,22.45
2019-04-01T11:35:16.131Z,21.80
2019-04-01T11:37:44.913Z,22.48
2019-04-01T11:40:14.459Z,20.65
2019-04-01T11:42:42.996Z,22.50
2019-04-01T11:45:11.892Z,19.65
2019-04-01T11:47:40.545Z,19.57
2019-04-01T11:50:09.278Z,17.75
2019-04-01T11:52:38.219Z,19.12
2019-04-01T11:55:08.941Z,20.68
2019-04-01T11:57:38.612Z,17.57
2019-04-01T12:00:13.476Z,19.85
2019-04-01T12:02:42.336Z,18.05
2019-04-01T12:05:11.363Z,19.30
2019-04-01T12:07:39.943Z,20.23
2019-04-01T12:10:08.831Z,23.52
2019-04-01T12:12:37.395Z,20.62
2019-04-01T12:15:06.686Z,22.22
2019-04-01T12:17:35.209Z,19.32
2019-04-01T12:20:04.260Z,20.23
2019-04-01T12:22:32.783Z,19.85
2019-04-01T12:25:01.230Z,21.17
2019-04-01T12:27:29.867Z,20.27
2019-04-01T12:29:58.317Z,18.75
2019-04-01T12:32:26.776Z,19.95
2019-04-01T12:34:55.326Z,21.35
2019-04-01T12:37:23.776Z,20.97
2019-04-01T12:39:52.232Z,23.83
2019-04-01T12:42:21.049Z,19.87
2019-04-01T12:44:49.502Z,20.60
2019-04-01T12:47:18.185Z,20.30
2019-04-01T12:49:46.657Z,21.55
2019-04-01T12:52:15.170Z,21.05
2019-04-01T12:54:43.891Z,20.00
2019-04-01T12:57:13.319Z,20.00
2019-04-01T12:59:42.348Z,20.82
2019-04-01T13:02:12.010Z,19.82
2019-04-01T13:04:40.497Z,18.12
2019-04-01T13:07:08.954Z,20.45
2019-04-01T13:09:37.397Z,23.98
2019-04-01T13:12:06.038Z,20.95
2019-04-01T13:14:34.494Z,18.80
2019-04-01T13:17:03.009Z,20.95
2019-04-01T13:19:32.032Z,21.20
2019-04-01T13:22:00.577Z,22.90
2019-04-01T13:24:29.024Z,18.05
2019-04-01T13:26:57.497Z,18.98
2019-04-01T13:29:26.100Z,21.52
2019-04-01T13:31:54.624Z,20.72
2019-04-01T13:34:23.277Z,19.60
2019-04-01T13:36:51.721Z,20.25
2019-04-01T13:39:20.170Z,19.25
2019-04-01T13:41:48.655Z,19.80
2019-04-01T13:44:17.111Z,19.60
2019-04-01T13:46:48.546Z,20.10
2019-04-01T13:49:16.036Z,19.50
2019-04-01T13:51:44.623Z,18.60
2019-04-01T13:54:13.084Z,20.55
2019-04-01T13:56:42.952Z,20.02
2019-04-01T13:59:12.539Z,19.48
2019-04-01T14:01:41.376Z,19.50
2019-04-01T14:04:09.850Z,22.07
2019-04-01T14:06:38.304Z,19.10
2019-04-01T14:09:07.657Z,18.05
2019-04-01T14:11:36.257Z,16.93
2019-04-01T14:14:04.845Z,17.65
2019-04-01T14:16:33.305Z,17.98
2019-04-01T14:19:01.778Z,20.25
2019-04-01T14:21:30.221Z,18.92
2019-04-01T14:23:58.675Z,17.17
2019-04-01T14:26:27.141Z,17.10
2019-04-01T14:28:55.595Z,19.02
2019-04-01T14:31:24.052Z,19.77
2019-04-01T14:33:52.721Z,16.73
2019-04-01T14:36:21.310Z,19.95
2019-04-01T14:38:49.840Z,15.72
2019-04-01T14:41:18.508Z,16.52
2019-04-01T14:43:47.042Z,18.40
2019-04-01T14:46:15.504Z,17.35
2019-04-01T14:48:44.097Z,16.57
2019-04-01T14:51:12.548Z,17.50
2019-04-01T14:53:40.995Z,17.25
2019-04-01T14:56:09.653Z,18.35
2019-04-01T14:58:38.109Z,14.63
2019-04-01T15:01:06.933Z,17.27
2019-04-01T15:03:35.643Z,16.77
2019-04-01T15:06:04.257Z,16.15
2019-04-01T15:08:32.732Z,15.53
2019-04-01T15:11:01.209Z,18.82
2019-04-01T15:13:29.658Z,16.12
2019-04-01T15:15:58.114Z,16.50
2019-04-01T15:18:26.657Z,16.35
2019-04-01T15:20:55.119Z,13.98
2019-04-01T15:23:25.095Z,14.20
2019-04-01T15:25:54.503Z,16.20
2019-04-01T15:28:23.237Z,14.25
2019-04-01T15:30:51.855Z,13.85
2019-04-01T15:33:21.101Z,14.40
2019-04-01T15:35:49.769Z,14.68
2019-04-01T15:38:18.218Z,15.72
2019-04-01T15:40:47.250Z,14.60
2019-04-01T15:43:16.002Z,14.40
2019-04-01T15:45:44.522Z,15.48
2019-04-01T15:48:14.683Z,15.50
2019-04-01T15:50:43.208Z,16.37
2019-04-01T15:53:11.656Z,16.15
2019-04-01T15:55:40.277Z,18.62
2019-04-01T15:58:08.717Z,17.50
2019-04-01T16:00:37.181Z,17.35
2019-04-01T16:03:05.665Z,14.58
2019-04-01T16:05:34.345Z,15.28
2019-04-01T16:08:03.315Z,14.40
2019-04-01T16:10:31.789Z,12.90
2019-04-01T16:13:00.240Z,16.25
2019-04-01T16:15:31.825Z,14.40
2019-04-01T16:17:58.888Z,13.98
2019-04-01T16:20:27.339Z,15.65
2019-04-01T16:22:55.790Z,14.03
2019-04-01T16:25:24.348Z,13.25
2019-04-01T16:27:52.876Z,13.62
2019-04-01T16:30:21.389Z,13.53
2019-04-01T16:32:49.880Z,19.32
2019-04-01T16:35:18.330Z,12.75
2019-04-01T16:37:46.794Z,16.00
2019-04-01T16:40:15.510Z,15.43
2019-04-01T16:42:43.958Z,15.73
2019-04-01T16:45:13.595Z,13.03
2019-04-01T16:47:42.648Z,15.67
2019-04-01T16:50:11.590Z,15.80
2019-04-01T16:52:40.115Z,13.77
2019-04-01T16:55:10.193Z,15.23
2019-04-01T16:57:38.718Z,13.80
2019-04-01T17:00:09.681Z,15.20
2019-04-01T17:02:38.442Z,14.97
2019-04-01T17:05:08.730Z,16.80
2019-04-01T17:07:37.247Z,17.43
2019-04-01T17:10:06.769Z,24.20
2019-04-01T17:12:35.283Z,16.33
2019-04-01T17:15:04.371Z,14.00
2019-04-01T17:17:32.844Z,12.80
2019-04-01T17:20:01.300Z,15.30
2019-04-01T17:22:29.741Z,15.23
2019-04-01T17:24:58.466Z,14.43
2019-04-01T17:27:26.913Z,18.03
2019-04-01T17:29:55.637Z,16.30
2019-04-01T17:32:24.110Z,15.10
2019-04-01T17:34:52.626Z,13.87
2019-04-01T17:37:21.146Z,19.50
2019-04-01T17:39:49.618Z,15.57
2019-04-01T17:42:18.073Z,15.63
2019-04-01T17:44:46.523Z,15.97
2019-04-01T17:47:15.234Z,16.00
2019-04-01T17:49:43.683Z,17.23
2019-04-01T17:52:12.269Z,15.70
2019-04-01T17:54:40.770Z,15.53
2019-04-01T17:57:09.213Z,15.80
2019-04-01T17:59:37.666Z,14.67
2019-04-01T18:02:09.387Z,15.77
2019-04-01T18:04:37.840Z,14.63
2019-04-01T18:07:07.309Z,14.00
2019-04-01T18:09:36.045Z,14.37
2019-04-01T18:12:05.000Z,16.00
2019-04-01T18:14:33.451Z,19.10
2019-04-01T18:17:02.199Z,20.13
2019-04-01T18:19:30.647Z,17.43
2019-04-01T18:22:00.145Z,18.27
2019-04-01T18:24:29.197Z,18.43
2019-04-01T18:26:57.649Z,15.40
2019-04-01T18:29:26.102Z,17.07
2019-04-01T18:31:54.735Z,19.13
2019-04-01T18:34:23.196Z,19.00
2019-04-01T18:36:52.182Z,15.57
2019-04-01T18:39:21.200Z,18.60
2019-04-01T18:41:49.646Z,17.50
2019-04-01T18:44:18.761Z,16.87
2019-04-01T18:46:47.719Z,19.97
2019-04-01T18:49:17.061Z,20.60
2019-04-01T18:51:45.751Z,18.30
2019-04-01T18:54:14.235Z,20.10
2019-04-01T18:56:42.758Z,18.33
2019-04-01T18:59:11.286Z,20.00
2019-04-01T19:01:39.773Z,19.47
2019-04-01T19:04:08.222Z,16.40
2019-04-01T19:06:36.741Z,17.00
2019-04-01T19:09:09.425Z,19.33
2019-04-01T19:11:38.384Z,18.97
2019-04-01T19:14:07.055Z,16.80
2019-04-01T19:16:36.091Z,17.03
2019-04-01T19:19:04.605Z,18.27
2019-04-01T19:21:33.051Z,17.47
2019-04-01T19:24:01.534Z,17.87
2019-04-01T19:26:29.981Z,17.40
2019-04-01T19:28:58.457Z,17.80
2019-04-01T19:31:27.003Z,20.17
2019-04-01T19:33:55.513Z,21.23
2019-04-01T19:36:23.966Z,20.17
2019-04-01T19:38:54.264Z,17.30
2019-04-01T19:41:22.618Z,18.80
2019-04-01T19:43:51.384Z,18.90
2019-04-01T19:46:20.270Z,20.33
2019-04-01T19:48:48.794Z,19.80
2019-04-01T19:51:17.243Z,23.87
2019-04-01T19:53:45.726Z,19.90
2019-04-01T19:56:14.176Z,23.80
2019-04-01T19:58:42.635Z,20.50
2019-04-01T20:01:11.441Z,18.53
2019-04-01T20:03:39.897Z,15.23
2019-04-01T20:06:08.495Z,19.73
2019-04-01T20:08:36.969Z,19.50
2019-04-01T20:11:05.421Z,17.90
2019-04-01T20:13:33.894Z,16.23
2019-04-01T20:16:02.370Z,16.73
2019-04-01T20:18:30.885Z,18.93
2019-04-01T20:21:00.144Z,17.27
2019-04-01T20:23:28.925Z,18.33
2019-04-01T20:25:57.445Z,19.30
2019-04-01T20:28:25.951Z,17.17
2019-04-01T20:30:56.446Z,16.07
2019-04-01T20:33:24.611Z,18.30
2019-04-01T20:35:53.068Z,16.27
2019-04-01T20:38:21.537Z,18.40
2019-04-01T20:40:50.061Z,18.80
2019-04-01T20:43:18.520Z,19.47
2019-04-01T20:45:46.993Z,17.67
2019-04-01T20:48:15.442Z,16.93
2019-04-01T20:50:43.895Z,19.30
2019-04-01T20:53:12.494Z,16.50
2019-04-01T20:55:48.064Z,18.83
2019-04-01T20:58:11.186Z,18.63
2019-04-01T21:00:40.221Z,18.17
2019-04-01T21:03:08.705Z,17.90
2019-04-01T21:05:37.163Z,17.43
2019-04-01T21:08:05.768Z,22.57
2019-04-01T21:10:34.233Z,17.97
2019-04-01T21:13:02.745Z,18.20
2019-04-01T21:15:31.704Z,19.33
2019-04-01T21:18:00.372Z,18.10
2019-04-01T21:20:28.885Z,19.13
2019-04-01T21:22:57.576Z,17.27
2019-04-01T21:25:26.118Z,16.27
2019-04-01T21:27:54.633Z,18.30
2019-04-01T21:30:23.573Z,18.23
2019-04-01T21:32:52.024Z,19.60
2019-04-01T21:35:20.469Z,20.03
2019-04-01T21:37:49.287Z,18.80
2019-04-01T21:40:18.063Z,19.20
2019-04-01T21:42:47.417Z,20.73
2019-04-01T21:45:16.795Z,21.33
2019-04-01T21:47:45.421Z,21.13
2019-04-01T21:50:14.401Z,22.17
2019-04-01T21:52:43.365Z,19.97
2019-04-01T21:55:12.150Z,22.37
2019-04-01T21:57:40.667Z,23.50
2019-04-01T22:00:11.477Z,20.57
2019-04-01T22:02:40.073Z,23.27
2019-04-01T22:05:10.343Z,23.70
2019-04-01T22:07:39.393Z,24.50
2019-04-01T22:10:08.231Z,19.90
2019-04-01T22:12:36.743Z,21.27
2019-04-01T22:15:06.856Z,22.53
2019-04-01T22:17:35.562Z,24.10
2019-04-01T22:20:06.322Z,24.10
2019-04-01T22:22:34.805Z,20.63
2019-04-01T22:25:04.291Z,24.33
2019-04-01T22:27:32.812Z,21.30
2019-04-01T22:30:01.285Z,20.97
2019-04-01T22:32:29.743Z,22.17
2019-04-01T22:34:58.186Z,23.87
2019-04-01T22:37:27.798Z,23.73
2019-04-01T22:39:56.548Z,25.23
2019-04-01T22:42:25.004Z,24.23
2019-04-01T22:44:53.586Z,21.73
2019-04-01T22:47:24.279Z,26.97
2019-04-01T22:49:52.210Z,23.07
2019-04-01T22:52:20.867Z,23.70
2019-04-01T22:54:49.377Z,21.33
2019-04-01T22:57:17.825Z,23.27
2019-04-01T22:59:46.297Z,22.47
2019-04-01T23:02:14.749Z,23.97
2019-04-01T23:04:43.263Z,26.40
2019-04-01T23:07:11.815Z,23.00
2019-04-01T23:09:40.334Z,26.67
2019-04-01T23:12:08.782Z,21.63
2019-04-01T23:14:37.511Z,24.03
2019-04-01T23:17:05.964Z,22.53
2019-04-01T23:19:34.916Z,24.20
2019-04-01T23:22:04.219Z,26.07
2019-04-01T23:24:32.666Z,21.50
2019-04-01T23:27:01.122Z,24.97
2019-04-01T23:29:30.118Z,22.80
2019-04-01T23:31:58.566Z,22.10
2019-04-01T23:34:27.040Z,22.33
2019-04-01T23:36:56.097Z,26.50
2019-04-01T23:39:24.546Z,24.03
2019-04-01T23:41:53.002Z,22.97
2019-04-01T23:44:34.262Z,22.50
2019-04-01T23:47:02.713Z,25.23
2019-04-01T23:49:31.158Z,23.37
2019-04-01T23:51:59.625Z,23.00
2019-04-01T23:54:28.073Z,21.87
2019-04-01T23:56:56.632Z,22.23
2019-04-01T23:59:25.279Z,24.03
